sensor_id;sensor_type;location;lat;lon;timestamp;pressure;altitude;pressure_sealevel;temperature;humidity
46506;BME280;32220;49.808;9.968;2023-01-29T09:05:40;100159.25;;;0.75;75.46
46506;BME280;32220;49.808;9.968;2023-01-29T09:08:08;100170.34;;;1.44;73.19
46506;BME280;32220;49.808;9.968;2023-01-29T09:10:36;100190.03;;;2.03;70.31
46506;BME280;32220;49.808;9.968;2023-01-29T09:13:04;100181.91;;;2.39;66.96
46506;BME280;32220;49.808;9.968;2023-01-29T09:15:31;100202.34;;;2.94;64.92
46506;BME280;32220;49.808;9.968;2023-01-29T09:18:02;100191.38;;;3.37;64.32
46506;BME280;32220;49.808;9.968;2023-01-29T09:20:30;100209.22;;;3.76;61.49
46506;BME280;32220;49.808;9.968;2023-01-29T09:23:04;100219.13;;;4.16;59.46
46506;BME280;32220;49.808;9.968;2023-01-29T09:25:32;100246.09;;;4.81;58.43
46506;BME280;32220;49.808;9.968;2023-01-29T09:27:59;100238.81;;;4.95;56.36
46506;BME280;32220;49.808;9.968;2023-01-29T09:30:27;100242.97;;;5.08;56.03
46506;BME280;32220;49.808;9.968;2023-01-29T09:32:55;100245.22;;;5.29;55.72
46506;BME280;32220;49.808;9.968;2023-01-29T09:35:23;100265.03;;;5.46;53.02
46506;BME280;32220;49.808;9.968;2023-01-29T09:37:51;100255.91;;;5.65;54.26
46506;BME280;32220;49.808;9.968;2023-01-29T09:40:23;100253.91;;;5.76;53.39
46506;BME280;32220;49.808;9.968;2023-01-29T09:42:56;100243.59;;;5.67;52.88
46506;BME280;32220;49.808;9.968;2023-01-29T09:45:26;100243.69;;;5.61;52.84
46506;BME280;32220;49.808;9.968;2023-01-29T09:47:56;100268.88;;;5.72;53.00
46506;BME280;32220;49.808;9.968;2023-01-29T09:50:29;100266.34;;;5.68;52.99
46506;BME280;32220;49.808;9.968;2023-01-29T09:53:01;100256.72;;;5.68;53.16
46506;BME280;32220;49.808;9.968;2023-01-29T09:55:36;100296.56;;;5.92;52.13
46506;BME280;32220;49.808;9.968;2023-01-29T09:58:13;100289.69;;;5.83;52.59
46506;BME280;32220;49.808;9.968;2023-01-29T10:00:50;100295.97;;;5.76;52.89
46506;BME280;32220;49.808;9.968;2023-01-29T10:03:35;100295.41;;;5.59;52.52
46506;BME280;32220;49.808;9.968;2023-01-29T10:06:20;100320.16;;;5.47;52.69
46506;BME280;32220;49.808;9.968;2023-01-29T10:11:48;100326.16;;;5.06;52.73
46506;BME280;32220;49.808;9.968;2023-01-29T10:14:29;100333.22;;;5.02;53.34
46506;BME280;32220;49.808;9.968;2023-01-29T10:17:11;100301.13;;;4.84;53.71
46506;BME280;32220;49.808;9.968;2023-01-29T10:19:54;100288.81;;;4.89;53.45
46506;BME280;32220;49.808;9.968;2023-01-29T10:22:49;100287.69;;;5.03;52.81
46506;BME280;32220;49.808;9.968;2023-01-29T10:25:22;100269.16;;;5.13;52.82
46506;BME280;32220;49.808;9.968;2023-01-29T10:27:53;100249.03;;;5.12;52.55
46506;BME280;32220;49.808;9.968;2023-01-29T10:30:30;100235.66;;;5.24;52.69
46506;BME280;32220;49.808;9.968;2023-01-29T10:33:01;100237.00;;;5.45;52.37
46506;BME280;32220;49.808;9.968;2023-01-29T10:35:32;100235.94;;;5.56;51.72
46506;BME280;32220;49.808;9.968;2023-01-29T10:38:14;100220.59;;;5.76;51.69
46506;BME280;32220;49.808;9.968;2023-01-29T10:40:49;100229.69;;;6.03;51.46
46506;BME280;32220;49.808;9.968;2023-01-29T10:43:26;100219.53;;;6.27;51.15
46506;BME280;32220;49.808;9.968;2023-01-29T10:46:08;100217.19;;;6.50;50.60
46506;BME280;32220;49.808;9.968;2023-01-29T10:48:50;100228.69;;;6.81;49.62
46506;BME280;32220;49.808;9.968;2023-01-29T10:51:32;100230.41;;;6.82;48.04
46506;BME280;32220;49.808;9.968;2023-01-29T10:54:18;100206.72;;;6.82;48.97
46506;BME280;32220;49.808;9.968;2023-01-29T10:57:01;100205.69;;;6.90;49.12
46506;BME280;32220;49.808;9.968;2023-01-29T10:59:47;100217.31;;;7.15;49.18
46506;BME280;32220;49.808;9.968;2023-01-29T11:02:19;100216.88;;;7.61;48.61
46506;BME280;32220;49.808;9.968;2023-01-29T11:04:47;100203.81;;;7.56;48.30
46506;BME280;32220;49.808;9.968;2023-01-29T11:07:17;100205.97;;;7.73;47.88
46506;BME280;32220;49.808;9.968;2023-01-29T11:09:52;100190.19;;;8.57;47.64
46506;BME280;32220;49.808;9.968;2023-01-29T11:12:25;100186.47;;;9.39;45.45
46506;BME280;32220;49.808;9.968;2023-01-29T11:15:02;100202.25;;;10.33;44.09
46506;BME280;32220;49.808;9.968;2023-01-29T11:17:32;100222.91;;;11.30;42.82
46506;BME280;32220;49.808;9.968;2023-01-29T11:20:00;100214.38;;;11.82;42.19
46506;BME280;32220;49.808;9.968;2023-01-29T11:22:29;100220.84;;;11.96;40.10
46506;BME280;32220;49.808;9.968;2023-01-29T11:25:08;100213.09;;;12.10;40.55
46506;BME280;32220;49.808;9.968;2023-01-29T11:27:41;100197.88;;;11.95;40.24
46506;BME280;32220;49.808;9.968;2023-01-29T11:30:53;100199.72;;;11.74;40.51
46506;BME280;32220;49.808;9.968;2023-01-29T11:42:18;100164.47;;;12.97;38.73
46506;BME280;32220;49.808;9.968;2023-01-29T11:44:47;100134.59;;;12.92;35.97
46506;BME280;32220;49.808;9.968;2023-01-29T11:47:20;100150.84;;;12.86;37.05
46506;BME280;32220;49.808;9.968;2023-01-29T11:49:51;100181.31;;;12.44;35.54
46506;BME280;32220;49.808;9.968;2023-01-29T11:52:20;100139.91;;;11.85;37.41
46506;BME280;32220;49.808;9.968;2023-01-29T11:56:39;100145.44;;;11.42;38.41
46506;BME280;32220;49.808;9.968;2023-01-29T12:00:40;100071.31;;;10.61;38.83
46506;BME280;32220;49.808;9.968;2023-01-29T12:03:15;100082.03;;;10.58;39.30
46506;BME280;32220;49.808;9.968;2023-01-29T12:05:53;100049.34;;;10.38;39.78
46506;BME280;32220;49.808;9.968;2023-01-29T12:08:23;100089.00;;;10.60;39.73
46506;BME280;32220;49.808;9.968;2023-01-29T12:10:52;100097.06;;;10.57;38.90
46506;BME280;32220;49.808;9.968;2023-01-29T12:13:35;100093.69;;;10.74;39.31
46506;BME280;32220;49.808;9.968;2023-01-29T12:16:11;100078.56;;;10.76;39.49
46506;BME280;32220;49.808;9.968;2023-01-29T12:18:43;100108.00;;;11.29;38.78
46506;BME280;32220;49.808;9.968;2023-01-29T12:21:17;100098.25;;;12.05;38.24
46506;BME280;32220;49.808;9.968;2023-01-29T12:23:51;100112.63;;;13.39;37.57
46506;BME280;32220;49.808;9.968;2023-01-29T12:26:26;100117.31;;;14.45;35.61
46506;BME280;32220;49.808;9.968;2023-01-29T12:29:12;100113.06;;;14.57;34.17
46506;BME280;32220;49.808;9.968;2023-01-29T12:31:47;100113.09;;;15.29;34.23
46506;BME280;32220;49.808;9.968;2023-01-29T12:34:23;100113.16;;;15.85;33.67
46506;BME280;32220;49.808;9.968;2023-01-29T12:36:58;100107.97;;;16.10;32.96
46506;BME280;32220;49.808;9.968;2023-01-29T12:39:28;100126.47;;;16.40;32.25
46506;BME280;32220;49.808;9.968;2023-01-29T12:41:59;100088.50;;;15.53;32.31
46506;BME280;32220;49.808;9.968;2023-01-29T12:44:32;100090.97;;;16.38;31.90
46506;BME280;32220;49.808;9.968;2023-01-29T12:47:05;100108.25;;;17.24;30.91
46506;BME280;32220;49.808;9.968;2023-01-29T12:49:37;100112.53;;;17.65;30.17
46506;BME280;32220;49.808;9.968;2023-01-29T12:52:09;100092.16;;;17.37;30.21
46506;BME280;32220;49.808;9.968;2023-01-29T12:54:41;100095.97;;;16.69;30.24
46506;BME280;32220;49.808;9.968;2023-01-29T12:57:18;100096.78;;;16.57;31.25
46506;BME280;32220;49.808;9.968;2023-01-29T12:59:52;100101.13;;;16.72;30.77
46506;BME280;32220;49.808;9.968;2023-01-29T13:02:31;100092.06;;;17.13;29.84
46506;BME280;32220;49.808;9.968;2023-01-29T13:05:05;100083.16;;;17.50;29.79
46506;BME280;32220;49.808;9.968;2023-01-29T13:07:42;100048.41;;;17.74;29.97
46506;BME280;32220;49.808;9.968;2023-01-29T13:10:14;100058.69;;;18.28;29.18
46506;BME280;32220;49.808;9.968;2023-01-29T13:12:51;100092.22;;;18.92;27.45
46506;BME280;32220;49.808;9.968;2023-01-29T13:15:25;100083.72;;;19.21;27.70
46506;BME280;32220;49.808;9.968;2023-01-29T13:17:57;100081.59;;;19.59;27.23
46506;BME280;32220;49.808;9.968;2023-01-29T13:20:31;100075.72;;;18.75;27.87
46506;BME280;32220;49.808;9.968;2023-01-29T13:23:14;100063.28;;;17.16;28.94
46506;BME280;32220;49.808;9.968;2023-01-29T13:25:44;100029.44;;;16.25;30.06
46506;BME280;32220;49.808;9.968;2023-01-29T13:28:16;100035.09;;;15.53;30.83
46506;BME280;32220;49.808;9.968;2023-01-29T13:30:45;100001.38;;;14.52;31.93
46506;BME280;32220;49.808;9.968;2023-01-29T13:33:19;99990.56;;;13.64;33.04
46506;BME280;32220;49.808;9.968;2023-01-29T13:35:57;99981.19;;;12.77;34.05
46506;BME280;32220;49.808;9.968;2023-01-29T13:38:29;99995.34;;;12.10;34.78
46506;BME280;32220;49.808;9.968;2023-01-29T13:41:04;100009.94;;;11.46;35.19
46506;BME280;32220;49.808;9.968;2023-01-29T13:43:35;100001.47;;;10.82;36.12
46506;BME280;32220;49.808;9.968;2023-01-29T13:46:07;100007.09;;;10.35;37.24
46506;BME280;32220;49.808;9.968;2023-01-29T13:48:41;99984.50;;;9.85;37.71
46506;BME280;32220;49.808;9.968;2023-01-29T13:51:32;99951.56;;;9.28;38.46
46506;BME280;32220;49.808;9.968;2023-01-29T13:57:48;99973.22;;;8.69;39.86
46506;BME280;32220;49.808;9.968;2023-01-29T14:04:29;99970.09;;;8.08;41.67
46506;BME280;32220;49.808;9.968;2023-01-29T14:07:00;99961.97;;;7.89;41.65
46506;BME280;32220;49.808;9.968;2023-01-29T14:12:43;99941.78;;;7.88;42.11
46506;BME280;32220;49.808;9.968;2023-01-29T14:15:30;99942.88;;;8.33;42.04
46506;BME280;32220;49.808;9.968;2023-01-29T14:18:20;99936.81;;;9.44;41.07
46506;BME280;32220;49.808;9.968;2023-01-29T14:20:55;99933.31;;;10.26;39.20
46506;BME280;32220;49.808;9.968;2023-01-29T14:23:44;99942.31;;;10.63;39.12
46506;BME280;32220;49.808;9.968;2023-01-29T14:26:23;99940.31;;;11.24;38.98
46506;BME280;32220;49.808;9.968;2023-01-29T14:28:59;99936.47;;;11.66;37.38
46506;BME280;32220;49.808;9.968;2023-01-29T14:31:29;99940.84;;;11.67;37.05
46506;BME280;32220;49.808;9.968;2023-01-29T14:33:59;99938.59;;;11.59;37.21
46506;BME280;32220;49.808;9.968;2023-01-29T14:36:37;99940.06;;;11.83;37.05
46506;BME280;32220;49.808;9.968;2023-01-29T14:39:22;99932.28;;;11.62;36.37
46506;BME280;32220;49.808;9.968;2023-01-29T14:41:52;99932.25;;;11.26;37.55
46506;BME280;32220;49.808;9.968;2023-01-29T14:44:45;99941.31;;;10.84;37.69
46506;BME280;32220;49.808;9.968;2023-01-29T14:47:18;99935.94;;;10.86;38.02
46506;BME280;32220;49.808;9.968;2023-01-29T14:49:50;99929.31;;;11.32;38.01
46506;BME280;32220;49.808;9.968;2023-01-29T14:52:22;99930.28;;;11.84;37.25
46506;BME280;32220;49.808;9.968;2023-01-29T14:54:59;99915.22;;;11.84;37.52
46506;BME280;32220;49.808;9.968;2023-01-29T14:57:30;99902.59;;;11.36;37.62
46506;BME280;32220;49.808;9.968;2023-01-29T14:59:59;99927.28;;;10.82;37.87
46506;BME280;32220;49.808;9.968;2023-01-29T15:02:36;99926.69;;;10.16;38.71
46506;BME280;32220;49.808;9.968;2023-01-29T15:05:09;99894.25;;;9.50;39.78
46506;BME280;32220;49.808;9.968;2023-01-29T15:07:41;99885.06;;;8.95;40.38
46506;BME280;32220;49.808;9.968;2023-01-29T15:10:16;99885.84;;;8.52;41.59
46506;BME280;32220;49.808;9.968;2023-01-29T15:12:47;99887.38;;;8.09;42.00
46506;BME280;32220;49.808;9.968;2023-01-29T15:15:23;99891.75;;;7.85;42.52
46506;BME280;32220;49.808;9.968;2023-01-29T15:17:56;99889.44;;;7.51;42.78
46506;BME280;32220;49.808;9.968;2023-01-29T15:20:29;99887.84;;;7.19;43.46
46506;BME280;32220;49.808;9.968;2023-01-29T15:22:57;99836.16;;;6.61;44.30
46506;BME280;32220;49.808;9.968;2023-01-29T15:25:33;99859.38;;;6.47;44.91
46506;BME280;32220;49.808;9.968;2023-01-29T15:28:03;99877.44;;;6.30;45.23
46506;BME280;32220;49.808;9.968;2023-01-29T15:30:36;99860.66;;;6.04;46.22
46506;BME280;32220;49.808;9.968;2023-01-29T15:33:07;99831.69;;;5.72;46.82
46506;BME280;32220;49.808;9.968;2023-01-29T15:35:38;99849.53;;;5.61;47.35
46506;BME280;32220;49.808;9.968;2023-01-29T15:38:14;99823.28;;;5.27;48.26
46506;BME280;32220;49.808;9.968;2023-01-29T15:40:52;99827.22;;;5.09;48.78
46506;BME280;32220;49.808;9.968;2023-01-29T15:43:21;99815.53;;;4.87;48.79
46506;BME280;32220;49.808;9.968;2023-01-29T15:45:50;99817.56;;;4.74;49.58
46506;BME280;32220;49.808;9.968;2023-01-29T15:48:23;99809.34;;;4.52;49.92
46506;BME280;32220;49.808;9.968;2023-01-29T15:50:54;99833.06;;;4.46;49.97
46506;BME280;32220;49.808;9.968;2023-01-29T15:53:32;99805.75;;;4.18;51.10
46506;BME280;32220;49.808;9.968;2023-01-29T15:56:07;99819.00;;;4.10;51.47
46506;BME280;32220;49.808;9.968;2023-01-29T15:58:38;99823.66;;;3.96;51.98
46506;BME280;32220;49.808;9.968;2023-01-29T16:01:07;99789.38;;;3.65;52.60
46506;BME280;32220;49.808;9.968;2023-01-29T16:03:37;99753.34;;;3.32;52.57
46506;BME280;32220;49.808;9.968;2023-01-29T16:06:05;99815.84;;;3.50;53.04
46506;BME280;32220;49.808;9.968;2023-01-29T16:08:34;99803.09;;;3.33;52.92
46506;BME280;32220;49.808;9.968;2023-01-29T16:11:05;99779.84;;;3.13;53.78
46506;BME280;32220;49.808;9.968;2023-01-29T16:13:35;99742.09;;;2.79;54.06
46506;BME280;32220;49.808;9.968;2023-01-29T16:16:18;99793.25;;;2.97;54.66
46506;BME280;32220;49.808;9.968;2023-01-29T16:18:47;99783.81;;;2.85;55.63
46506;BME280;32220;49.808;9.968;2023-01-29T16:21:23;99773.53;;;2.76;55.38
46506;BME280;32220;49.808;9.968;2023-01-29T16:23:54;99779.75;;;2.69;55.64
46506;BME280;32220;49.808;9.968;2023-01-29T16:26:26;99762.69;;;2.45;55.95
46506;BME280;32220;49.808;9.968;2023-01-29T16:28:57;99786.13;;;2.49;55.99
46506;BME280;32220;49.808;9.968;2023-01-29T16:31:32;99781.94;;;2.39;55.42
46506;BME280;32220;49.808;9.968;2023-01-29T16:34:06;99763.03;;;2.22;55.39
46506;BME280;32220;49.808;9.968;2023-01-29T16:36:35;99722.53;;;1.91;55.55
46506;BME280;32220;49.808;9.968;2023-01-29T16:39:05;99777.16;;;2.09;55.76
46506;BME280;32220;49.808;9.968;2023-01-29T16:41:42;99793.59;;;2.17;56.47
46506;BME280;32220;49.808;9.968;2023-01-29T16:44:29;99782.44;;;2.04;57.13
46506;BME280;32220;49.808;9.968;2023-01-29T16:47:05;99749.63;;;1.85;56.82
46506;BME280;32220;49.808;9.968;2023-01-29T16:49:45;99773.03;;;1.93;57.47
46506;BME280;32220;49.808;9.968;2023-01-29T16:52:18;99753.22;;;1.75;57.40
46506;BME280;32220;49.808;9.968;2023-01-29T16:54:46;99760.25;;;1.70;58.05
46506;BME280;32220;49.808;9.968;2023-01-29T16:57:18;99773.22;;;1.74;58.77
46506;BME280;32220;49.808;9.968;2023-01-29T16:59:49;99743.88;;;1.57;59.64
46506;BME280;32220;49.808;9.968;2023-01-29T17:02:23;99764.66;;;1.63;58.65
46506;BME280;32220;49.808;9.968;2023-01-29T17:04:56;99739.69;;;1.44;59.80
46506;BME280;32220;49.808;9.968;2023-01-29T17:07:25;99763.97;;;1.49;60.64
46506;BME280;32220;49.808;9.968;2023-01-29T17:09:57;99764.88;;;1.48;60.62
46506;BME280;32220;49.808;9.968;2023-01-29T17:12:29;99752.88;;;1.32;60.16
46506;BME280;32220;49.808;9.968;2023-01-29T17:14:59;99771.91;;;1.40;60.23
46506;BME280;32220;49.808;9.968;2023-01-29T17:17:28;99771.94;;;1.37;61.04
46506;BME280;32220;49.808;9.968;2023-01-29T17:19:57;99720.13;;;1.03;61.26
46506;BME280;32220;49.808;9.968;2023-01-29T17:22:25;99751.28;;;1.19;62.53
46506;BME280;32220;49.808;9.968;2023-01-29T17:24:53;99703.75;;;0.88;62.41
46506;BME280;32220;49.808;9.968;2023-01-29T17:27:22;99746.97;;;1.15;62.27
46506;BME280;32220;49.808;9.968;2023-01-29T17:29:51;99766.03;;;1.23;62.90
46506;BME280;32220;49.808;9.968;2023-01-29T17:32:19;99740.13;;;1.01;63.50
46506;BME280;32220;49.808;9.968;2023-01-29T17:34:47;99763.47;;;1.14;63.67
46506;BME280;32220;49.808;9.968;2023-01-29T17:37:16;99760.88;;;1.15;63.48
46506;BME280;32220;49.808;9.968;2023-01-29T17:39:46;99762.63;;;1.12;63.25
46506;BME280;32220;49.808;9.968;2023-01-29T17:42:16;99744.50;;;0.99;63.10
46506;BME280;32220;49.808;9.968;2023-01-29T17:44:43;99754.03;;;1.02;65.03
46506;BME280;32220;49.808;9.968;2023-01-29T17:47:13;99755.84;;;0.98;64.52
46506;BME280;32220;49.808;9.968;2023-01-29T17:49:41;99769.69;;;1.03;64.46
46506;BME280;32220;49.808;9.968;2023-01-29T17:52:09;99770.63;;;0.96;64.39
46506;BME280;32220;49.808;9.968;2023-01-29T17:54:37;99765.47;;;0.87;64.81
46506;BME280;32220;49.808;9.968;2023-01-29T17:57:05;99770.75;;;0.84;64.29
46506;BME280;32220;49.808;9.968;2023-01-29T17:59:33;99775.97;;;0.81;64.65
46506;BME280;32220;49.808;9.968;2023-01-29T18:02:01;99775.13;;;0.76;64.55
46506;BME280;32220;49.808;9.968;2023-01-29T18:04:30;99784.69;;;0.77;64.07
46506;BME280;32220;49.808;9.968;2023-01-29T18:06:58;99807.25;;;0.81;64.04
46506;BME280;32220;49.808;9.968;2023-01-29T18:09:26;99796.94;;;0.66;64.13
46506;BME280;32220;49.808;9.968;2023-01-29T18:11:54;99732.94;;;0.25;65.01
46506;BME280;32220;49.808;9.968;2023-01-29T18:14:22;99774.47;;;0.50;64.54
46506;BME280;32220;49.808;9.968;2023-01-29T18:16:49;99782.25;;;0.54;65.23
46506;BME280;32220;49.808;9.968;2023-01-29T18:19:20;99760.63;;;0.42;66.06
46506;BME280;32220;49.808;9.968;2023-01-29T18:21:50;99783.19;;;0.49;65.80
46506;BME280;32220;49.808;9.968;2023-01-29T18:24:19;99782.31;;;0.48;65.68
46506;BME280;32220;49.808;9.968;2023-01-29T18:26:47;99786.66;;;0.48;65.68
46506;BME280;32220;49.808;9.968;2023-01-29T18:29:16;99781.47;;;0.45;65.23
46506;BME280;32220;49.808;9.968;2023-01-29T18:31:46;99795.31;;;0.53;64.83
46506;BME280;32220;49.808;9.968;2023-01-29T18:34:14;99798.84;;;0.46;64.80
46506;BME280;32220;49.808;9.968;2023-01-29T18:36:42;99796.31;;;0.35;64.80
46506;BME280;32220;49.808;9.968;2023-01-29T18:39:14;99788.50;;;0.29;64.33
46506;BME280;32220;49.808;9.968;2023-01-29T18:41:42;99790.25;;;0.25;64.39
46506;BME280;32220;49.808;9.968;2023-01-29T18:44:10;99809.34;;;0.33;64.05
46506;BME280;32220;49.808;9.968;2023-01-29T18:46:38;99767.81;;;0.08;64.09
46506;BME280;32220;49.808;9.968;2023-01-29T18:49:06;99793.81;;;0.15;64.38
46506;BME280;32220;49.808;9.968;2023-01-29T18:51:34;99776.50;;;0.05;64.24
46506;BME280;32220;49.808;9.968;2023-01-29T18:54:02;99798.13;;;0.16;64.22
46506;BME280;32220;49.808;9.968;2023-01-29T18:56:32;99804.22;;;0.15;65.17
46506;BME280;32220;49.808;9.968;2023-01-29T18:58:59;99703.81;;;-0.30;64.50
46506;BME280;32220;49.808;9.968;2023-01-29T19:01:27;99777.34;;;0.09;64.52
46506;BME280;32220;49.808;9.968;2023-01-29T19:03:55;99756.59;;;-0.05;64.62
46506;BME280;32220;49.808;9.968;2023-01-29T19:06:25;99773.03;;;0.06;65.16
46506;BME280;32220;49.808;9.968;2023-01-29T19:08:53;99743.59;;;-0.08;65.75
46506;BME280;32220;49.808;9.968;2023-01-29T19:11:21;99703.81;;;-0.31;66.28
46506;BME280;32220;49.808;9.968;2023-01-29T19:13:50;99742.72;;;-0.12;65.66
46506;BME280;32220;49.808;9.968;2023-01-29T19:16:18;99734.06;;;-0.12;66.63
46506;BME280;32220;49.808;9.968;2023-01-29T19:18:46;99724.56;;;-0.13;66.75
46506;BME280;32220;49.808;9.968;2023-01-29T19:21:15;99736.66;;;-0.09;66.33
46506;BME280;32220;49.808;9.968;2023-01-29T19:23:43;99733.22;;;-0.14;66.29
46506;BME280;32220;49.808;9.968;2023-01-29T19:26:11;99710.69;;;-0.18;67.58
46506;BME280;32220;49.808;9.968;2023-01-29T19:28:40;99730.56;;;-0.10;67.90
46506;BME280;32220;49.808;9.968;2023-01-29T19:31:09;99735.78;;;-0.07;67.68
46506;BME280;32220;49.808;9.968;2023-01-29T19:33:37;99655.34;;;-0.51;67.93
46506;BME280;32220;49.808;9.968;2023-01-29T19:36:06;99705.47;;;-0.18;67.53
46506;BME280;32220;49.808;9.968;2023-01-29T19:38:34;99728.84;;;-0.08;67.52
46506;BME280;32220;49.808;9.968;2023-01-29T19:41:04;99729.72;;;-0.10;67.32
46506;BME280;32220;49.808;9.968;2023-01-29T19:43:32;99724.50;;;-0.12;67.82
46506;BME280;32220;49.808;9.968;2023-01-29T19:46:01;99721.94;;;-0.13;67.68
46506;BME280;32220;49.808;9.968;2023-01-29T19:48:30;99728.03;;;-0.14;67.54
46506;BME280;32220;49.808;9.968;2023-01-29T19:51:00;99724.56;;;-0.16;67.23
46506;BME280;32220;49.808;9.968;2023-01-29T19:53:30;99696.88;;;-0.36;67.25
46506;BME280;32220;49.808;9.968;2023-01-29T19:55:59;99673.53;;;-0.46;67.35
46506;BME280;32220;49.808;9.968;2023-01-29T19:58:42;99674.44;;;-0.52;67.84
46506;BME280;32220;49.808;9.968;2023-01-29T20:01:13;99700.34;;;-0.27;67.90
46506;BME280;32220;49.808;9.968;2023-01-29T20:03:43;99698.59;;;-0.25;68.47
46506;BME280;32220;49.808;9.968;2023-01-29T20:06:14;99682.19;;;-0.40;68.37
46506;BME280;32220;49.808;9.968;2023-01-29T20:08:43;99671.78;;;-0.41;68.97
46506;BME280;32220;49.808;9.968;2023-01-29T20:11:12;99665.72;;;-0.45;68.88
46506;BME280;32220;49.808;9.968;2023-01-29T20:13:40;99682.19;;;-0.43;68.70
46506;BME280;32220;49.808;9.968;2023-01-29T20:16:08;99686.53;;;-0.45;68.48
46506;BME280;32220;49.808;9.968;2023-01-29T20:18:36;99686.53;;;-0.48;68.20
46506;BME280;32220;49.808;9.968;2023-01-29T20:21:08;99695.25;;;-0.52;68.24
46506;BME280;32220;49.808;9.968;2023-01-29T20:23:37;99702.19;;;-0.51;68.07
46506;BME280;32220;49.808;9.968;2023-01-29T20:26:06;99695.25;;;-0.55;67.84
46506;BME280;32220;49.808;9.968;2023-01-29T20:28:34;99693.56;;;-0.62;68.18
46506;BME280;32220;49.808;9.968;2023-01-29T20:31:05;99691.78;;;-0.60;68.29
46506;BME280;32220;49.808;9.968;2023-01-29T20:33:33;99697.91;;;-0.64;68.20
46506;BME280;32220;49.808;9.968;2023-01-29T20:36:16;99709.19;;;-0.62;68.44
46506;BME280;32220;49.808;9.968;2023-01-29T20:38:44;99723.00;;;-0.57;68.20
46506;BME280;32220;49.808;9.968;2023-01-29T20:41:14;99723.00;;;-0.60;68.29
46506;BME280;32220;49.808;9.968;2023-01-29T20:43:43;99688.38;;;-0.74;69.68
46506;BME280;32220;49.808;9.968;2023-01-29T20:46:13;99689.28;;;-0.77;69.25
46506;BME280;32220;49.808;9.968;2023-01-29T20:48:41;99679.75;;;-0.85;69.29
46506;BME280;32220;49.808;9.968;2023-01-29T20:51:12;99703.09;;;-0.65;70.01
46506;BME280;32220;49.808;9.968;2023-01-29T20:53:41;99706.56;;;-0.65;70.30
46506;BME280;32220;49.808;9.968;2023-01-29T20:56:12;99691.88;;;-0.75;70.51
46506;BME280;32220;49.808;9.968;2023-01-29T20:58:40;99687.50;;;-0.73;71.07
46506;BME280;32220;49.808;9.968;2023-01-29T21:01:22;99703.09;;;-0.62;70.72
46506;BME280;32220;49.808;9.968;2023-01-29T21:03:50;99682.34;;;-0.75;70.36
46506;BME280;32220;49.808;9.968;2023-01-29T21:06:20;99676.28;;;-0.75;70.21
46506;BME280;32220;49.808;9.968;2023-01-29T21:08:48;99688.38;;;-0.68;70.65
46506;BME280;32220;49.808;9.968;2023-01-29T21:11:16;99697.03;;;-0.64;70.66
46506;BME280;32220;49.808;9.968;2023-01-29T21:13:44;99696.16;;;-0.63;70.85
46506;BME280;32220;49.808;9.968;2023-01-29T21:16:12;99671.91;;;-0.68;71.35
46506;BME280;32220;49.808;9.968;2023-01-29T21:18:40;99657.22;;;-0.80;70.89
46506;BME280;32220;49.808;9.968;2023-01-29T21:21:08;99677.97;;;-0.68;71.11
46506;BME280;32220;49.808;9.968;2023-01-29T21:23:37;99659.81;;;-0.79;70.83
46506;BME280;32220;49.808;9.968;2023-01-29T21:26:05;99623.50;;;-1.01;70.69
46506;BME280;32220;49.808;9.968;2023-01-29T21:28:34;99685.78;;;-0.73;70.59
46506;BME280;32220;49.808;9.968;2023-01-29T21:31:03;99674.50;;;-0.73;71.15
46506;BME280;32220;49.808;9.968;2023-01-29T21:33:32;99647.69;;;-0.84;71.00
46506;BME280;32220;49.808;9.968;2023-01-29T21:36:00;99617.44;;;-1.00;71.22
46506;BME280;32220;49.808;9.968;2023-01-29T21:38:28;99641.66;;;-0.91;71.75
46506;BME280;32220;49.808;9.968;2023-01-29T21:41:02;99653.75;;;-0.82;71.35
46506;BME280;32220;49.808;9.968;2023-01-29T21:43:31;99653.81;;;-0.91;71.33
46506;BME280;32220;49.808;9.968;2023-01-29T21:46:00;99664.19;;;-0.88;71.06
46506;BME280;32220;49.808;9.968;2023-01-29T21:48:30;99636.50;;;-1.03;71.21
46506;BME280;32220;49.808;9.968;2023-01-29T21:50:58;99636.50;;;-1.04;71.75
46506;BME280;32220;49.808;9.968;2023-01-29T21:53:25;99626.97;;;-1.07;72.35
46506;BME280;32220;49.808;9.968;2023-01-29T21:55:58;99610.53;;;-1.11;72.17
46506;BME280;32220;49.808;9.968;2023-01-29T21:58:28;99607.06;;;-1.10;71.97
46506;BME280;32220;49.808;9.968;2023-01-29T22:00:56;99566.44;;;-1.26;72.47
46506;BME280;32220;49.808;9.968;2023-01-29T22:03:24;99581.97;;;-1.12;73.30
46506;BME280;32220;49.808;9.968;2023-01-29T22:05:52;99584.53;;;-1.09;72.84
46506;BME280;32220;49.808;9.968;2023-01-29T22:08:20;99569.81;;;-1.09;73.22
46506;BME280;32220;49.808;9.968;2023-01-29T22:10:48;99584.47;;;-0.95;73.19
46506;BME280;32220;49.808;9.968;2023-01-29T22:13:16;99564.59;;;-1.05;73.59
46506;BME280;32220;49.808;9.968;2023-01-29T22:15:46;99566.34;;;-1.06;73.52
46506;BME280;32220;49.808;9.968;2023-01-29T22:18:14;99558.53;;;-1.08;73.62
46506;BME280;32220;49.808;9.968;2023-01-29T22:20:42;99558.53;;;-1.04;73.21
46506;BME280;32220;49.808;9.968;2023-01-29T22:23:10;99542.94;;;-1.11;73.61
46506;BME280;32220;49.808;9.968;2023-01-29T22:25:38;99539.47;;;-1.10;73.56
46506;BME280;32220;49.808;9.968;2023-01-29T22:28:07;99558.50;;;-0.98;73.36
46506;BME280;32220;49.808;9.968;2023-01-29T22:30:35;99533.47;;;-1.12;73.82
46506;BME280;32220;49.808;9.968;2023-01-29T22:33:05;99530.88;;;-1.15;73.52
46506;BME280;32220;49.808;9.968;2023-01-29T22:35:32;99503.19;;;-1.25;73.24
46506;BME280;32220;49.808;9.968;2023-01-29T22:38:00;99514.41;;;-1.14;73.88
46506;BME280;32220;49.808;9.968;2023-01-29T22:40:29;99518.69;;;-1.11;73.96
46506;BME280;32220;49.808;9.968;2023-01-29T22:42:57;99502.28;;;-1.16;74.64
